createdAt,value
2023-02-25T00:00:34.567Z,4.10
2023-02-25T00:03:01.801Z,4.10
2023-02-25T00:05:31.707Z,4.10
2023-02-25T00:07:58.932Z,4.10
2023-02-25T00:10:25.617Z,4.10
2023-02-25T00:12:52.307Z,4.10
2023-02-25T00:15:19.439Z,4.10
2023-02-25T00:17:46.305Z,4.10
2023-02-25T00:20:14.169Z,4.10
2023-02-25T00:22:41.957Z,4.10
2023-02-25T00:25:09.432Z,4.10
2023-02-25T00:27:36.726Z,4.10
2023-02-25T00:30:05.356Z,4.20
2023-02-25T00:32:34.013Z,4.20
2023-02-25T00:35:01.673Z,4.20
2023-02-25T00:37:28.622Z,4.10
2023-02-25T00:39:55.311Z,4.10
2023-02-25T00:42:22.164Z,4.10
2023-02-25T00:44:50.526Z,4.10
2023-02-25T00:47:19.554Z,4.10
2023-02-25T00:49:47.639Z,4.10
2023-02-25T00:52:15.285Z,4.10
2023-02-25T00:54:41.931Z,4.10
2023-02-25T00:57:09.003Z,4.10
2023-02-25T00:59:35.654Z,4.10
2023-02-25T01:02:02.294Z,4.10
2023-02-25T01:04:28.970Z,3.90
2023-02-25T01:06:55.933Z,3.80
2023-02-25T01:09:22.843Z,3.70
2023-02-25T01:11:50.338Z,3.80
2023-02-25T01:14:22.731Z,3.70
2023-02-25T01:16:50.980Z,3.70
2023-02-25T01:19:24.577Z,3.70
2023-02-25T01:21:54.581Z,3.70
2023-02-25T01:24:27.992Z,3.70
2023-02-25T01:26:57.382Z,3.80
2023-02-25T01:29:26.682Z,3.80
2023-02-25T01:31:55.849Z,3.80
2023-02-25T01:34:23.240Z,3.90
2023-02-25T01:36:50.006Z,4.00
2023-02-25T01:39:19.249Z,4.00
2023-02-25T01:41:48.644Z,4.30
2023-02-25T01:44:36.728Z,4.10
2023-02-25T01:47:04.387Z,4.10
2023-02-25T01:49:46.162Z,4.10
2023-02-25T01:52:23.047Z,4.10
2023-02-25T01:54:53.695Z,4.10
2023-02-25T01:57:21.294Z,4.10
2023-02-25T01:59:50.392Z,4.00
2023-02-25T02:02:21.144Z,4.00
2023-02-25T02:04:51.554Z,4.00
2023-02-25T02:07:19.842Z,4.00
2023-02-25T02:09:55.962Z,4.00
2023-02-25T02:12:26.384Z,4.00
2023-02-25T02:14:54.971Z,4.00
2023-02-25T02:17:30.184Z,3.90
2023-02-25T02:20:11.647Z,3.90
2023-02-25T02:22:48.104Z,4.00
2023-02-25T02:25:54.154Z,4.00
2023-02-25T02:28:32.930Z,4.00
2023-02-25T02:31:27.366Z,3.90
2023-02-25T02:33:58.516Z,3.90
2023-02-25T02:36:51.507Z,3.90
2023-02-25T02:39:45.080Z,3.90
2023-02-25T02:42:27.261Z,3.90
2023-02-25T02:45:01.099Z,3.90
2023-02-25T02:47:49.120Z,3.90
2023-02-25T02:50:42.355Z,3.80
2023-02-25T02:53:18.621Z,3.80
2023-02-25T02:55:49.243Z,3.90
2023-02-25T02:58:31.893Z,3.90
2023-02-25T03:01:07.684Z,3.80
2023-02-25T03:03:39.206Z,3.80
2023-02-25T03:06:10.444Z,3.80
2023-02-25T03:08:44.782Z,3.80
2023-02-25T03:11:11.909Z,3.90
2023-02-25T03:13:38.776Z,3.90
2023-02-25T03:16:10.253Z,3.90
2023-02-25T03:19:05.180Z,3.90
2023-02-25T03:21:59.520Z,3.90
2023-02-25T03:24:35.201Z,4.00
2023-02-25T03:27:25.142Z,3.90
2023-02-25T03:29:52.970Z,3.90
2023-02-25T03:32:20.840Z,3.90
2023-02-25T03:34:50.019Z,3.90
2023-02-25T03:37:28.217Z,3.80
2023-02-25T03:39:59.089Z,3.80
2023-02-25T03:42:32.411Z,3.80
2023-02-25T03:45:02.521Z,3.80
2023-02-25T03:47:31.451Z,3.80
2023-02-25T03:50:23.876Z,3.70
2023-02-25T03:52:53.120Z,3.70
2023-02-25T03:55:20.142Z,3.70
2023-02-25T03:57:50.641Z,3.90
2023-02-25T04:00:25.256Z,3.70
2023-02-25T04:02:52.563Z,3.60
2023-02-25T04:05:21.624Z,3.60
2023-02-25T04:07:49.964Z,3.60
2023-02-25T04:10:17.348Z,3.60
2023-02-25T04:12:43.970Z,3.60
2023-02-25T04:15:11.288Z,3.60
2023-02-25T04:17:37.992Z,3.60
2023-02-25T04:20:05.603Z,3.50
2023-02-25T04:22:33.356Z,3.50
2023-02-25T04:25:00.325Z,3.50
2023-02-25T04:27:27.225Z,3.50
2023-02-25T04:29:53.903Z,3.50
2023-02-25T04:32:20.655Z,3.50
2023-02-25T04:34:48.597Z,3.90
2023-02-25T04:37:15.308Z,3.50
2023-02-25T04:39:41.912Z,3.50
2023-02-25T04:42:08.966Z,3.60
2023-02-25T04:44:35.886Z,3.60
2023-02-25T04:47:02.542Z,3.60
2023-02-25T04:49:29.324Z,3.60
2023-02-25T04:51:55.941Z,3.60
2023-02-25T04:54:22.787Z,3.60
2023-02-25T04:56:49.438Z,3.60
2023-02-25T04:59:17.455Z,3.60
2023-02-25T05:01:44.176Z,3.60
2023-02-25T05:04:11.020Z,3.60
2023-02-25T05:06:39.132Z,3.60
2023-02-25T05:09:05.780Z,3.60
2023-02-25T05:11:32.500Z,3.60
2023-02-25T05:13:59.311Z,3.60
2023-02-25T05:16:26.798Z,3.60
2023-02-25T05:18:54.502Z,3.60
2023-02-25T05:21:23.556Z,3.60
2023-02-25T05:23:51.725Z,3.60
2023-02-25T05:26:24.079Z,3.60
2023-02-25T05:28:56.520Z,3.60
2023-02-25T05:31:24.850Z,3.50
2023-02-25T05:33:53.136Z,3.50
2023-02-25T05:36:19.899Z,3.40
2023-02-25T05:38:46.772Z,3.40
2023-02-25T05:41:14.043Z,3.40
2023-02-25T05:43:40.860Z,3.40
2023-02-25T05:46:13.100Z,3.40
2023-02-25T05:48:45.834Z,3.40
2023-02-25T05:51:15.700Z,3.40
2023-02-25T05:53:44.603Z,3.40
2023-02-25T05:56:13.732Z,3.50
2023-02-25T05:58:40.702Z,3.50
2023-02-25T06:01:13.473Z,3.50
2023-02-25T06:03:41.652Z,3.50
2023-02-25T06:06:10.375Z,3.50
2023-02-25T06:08:37.164Z,3.60
2023-02-25T06:11:06.780Z,3.50
2023-02-25T06:13:33.824Z,3.50
2023-02-25T06:16:03.696Z,3.50
2023-02-25T06:18:30.395Z,3.50
2023-02-25T06:21:05.313Z,3.50
2023-02-25T06:23:32.891Z,3.50
2023-02-25T06:25:59.902Z,3.40
2023-02-25T06:28:26.765Z,3.40
2023-02-25T06:30:53.506Z,3.40
2023-02-25T06:33:20.252Z,3.40
2023-02-25T06:35:53.777Z,3.40
2023-02-25T06:38:21.152Z,3.50
2023-02-25T06:40:49.502Z,3.50
2023-02-25T06:43:16.906Z,3.50
2023-02-25T06:45:43.710Z,3.50
2023-02-25T06:48:10.749Z,3.60
2023-02-25T06:50:39.729Z,3.60
2023-02-25T06:53:07.393Z,3.60
2023-02-25T06:55:34.659Z,3.60
2023-02-25T06:58:01.288Z,3.60
2023-02-25T07:00:28.926Z,3.60
2023-02-25T07:02:55.571Z,3.60
2023-02-25T07:05:22.206Z,3.70
2023-02-25T07:07:48.847Z,3.70
2023-02-25T07:10:15.478Z,3.60
2023-02-25T07:12:42.142Z,3.70
2023-02-25T07:15:09.482Z,3.70
2023-02-25T07:17:37.438Z,3.70
2023-02-25T07:20:04.365Z,3.70
2023-02-25T07:22:31.040Z,3.70
2023-02-25T07:24:57.833Z,3.70
2023-02-25T07:27:24.937Z,3.70
2023-02-25T07:29:51.574Z,3.70
2023-02-25T07:32:18.364Z,3.70
2023-02-25T07:34:45.219Z,3.70
2023-02-25T07:37:12.857Z,3.70
2023-02-25T07:39:39.549Z,3.70
2023-02-25T07:42:06.246Z,3.70
2023-02-25T07:44:33.932Z,3.80
2023-02-25T07:47:00.585Z,3.80
2023-02-25T07:49:27.389Z,3.80
2023-02-25T07:51:54.041Z,3.80
2023-02-25T07:54:21.508Z,3.80
2023-02-25T07:56:50.762Z,3.80
2023-02-25T07:59:18.419Z,3.90
2023-02-25T08:01:45.350Z,3.90
2023-02-25T08:04:12.142Z,3.90
2023-02-25T08:06:40.925Z,4.00
2023-02-25T08:09:11.105Z,4.00
2023-02-25T08:11:38.644Z,4.00
2023-02-25T08:14:05.917Z,4.00
2023-02-25T08:16:33.713Z,4.10
2023-02-25T08:19:00.823Z,4.00
2023-02-25T08:21:27.716Z,4.00
2023-02-25T08:23:54.686Z,4.00
2023-02-25T08:26:22.704Z,4.00
2023-02-25T08:28:50.557Z,4.00
2023-02-25T08:31:18.037Z,4.00
2023-02-25T08:33:52.546Z,4.10
2023-02-25T08:36:22.328Z,4.10
2023-02-25T08:38:50.213Z,4.20
2023-02-25T08:41:19.567Z,4.20
2023-02-25T08:43:51.376Z,4.30
2023-02-25T08:46:20.944Z,4.20
2023-02-25T08:48:52.354Z,4.20
2023-02-25T08:51:20.085Z,4.20
2023-02-25T08:53:46.782Z,4.20
2023-02-25T08:56:16.248Z,4.20
2023-02-25T08:58:43.883Z,4.20
2023-02-25T09:01:16.848Z,4.30
2023-02-25T09:03:51.317Z,4.30
2023-02-25T09:06:22.602Z,4.20
2023-02-25T09:08:49.852Z,4.30
2023-02-25T09:11:16.972Z,4.30
2023-02-25T09:13:43.613Z,4.30
2023-02-25T09:16:10.789Z,4.30
2023-02-25T09:18:37.708Z,4.40
2023-02-25T09:21:04.494Z,4.40
2023-02-25T09:23:31.263Z,4.40
2023-02-25T09:26:03.544Z,4.40
2023-02-25T09:28:30.259Z,4.40
2023-02-25T09:30:58.111Z,4.60
2023-02-25T09:33:26.355Z,4.30
2023-02-25T09:35:53.007Z,4.30
2023-02-25T09:38:20.505Z,4.30
2023-02-25T09:40:48.542Z,4.30
2023-02-25T09:43:30.839Z,4.30
2023-02-25T09:46:07.561Z,4.40
2023-02-25T09:48:53.851Z,4.40
2023-02-25T09:51:29.446Z,4.40
2023-02-25T09:54:23.148Z,4.50
2023-02-25T09:56:50.305Z,4.50
2023-02-25T09:59:22.320Z,4.50
2023-02-25T10:01:56.749Z,4.50
2023-02-25T10:05:01.339Z,4.50
2023-02-25T10:07:36.433Z,4.50
2023-02-25T10:10:26.696Z,4.60
2023-02-25T10:13:19.696Z,4.70
2023-02-25T10:16:02.726Z,4.90
2023-02-25T10:19:05.473Z,5.30
2023-02-25T10:21:53.994Z,5.00
2023-02-25T10:24:34.682Z,5.00
2023-02-25T10:27:11.361Z,4.90
2023-02-25T10:29:49.049Z,5.00
2023-02-25T10:32:18.021Z,5.00
2023-02-25T10:34:44.772Z,5.00
2023-02-25T10:37:19.462Z,5.00
2023-02-25T10:39:48.542Z,5.00
2023-02-25T10:42:16.576Z,5.00
2023-02-25T10:44:44.723Z,5.00
2023-02-25T10:47:16.731Z,5.00
2023-02-25T10:50:18.355Z,4.90
2023-02-25T10:53:03.853Z,4.90
2023-02-25T10:55:51.881Z,4.90
2023-02-25T10:58:44.311Z,5.00
2023-02-25T11:01:15.453Z,5.00
2023-02-25T11:04:04.236Z,5.00
2023-02-25T11:06:36.313Z,5.10
2023-02-25T11:09:06.965Z,5.10
2023-02-25T11:11:39.198Z,5.20
2023-02-25T11:14:11.462Z,5.30
2023-02-25T11:16:40.383Z,5.30
2023-02-25T11:19:28.820Z,5.20
2023-02-25T11:21:57.878Z,5.00
2023-02-25T11:24:34.174Z,4.60
2023-02-25T11:27:03.743Z,4.40
2023-02-25T11:29:39.593Z,4.40
2023-02-25T11:32:21.567Z,4.40
2023-02-25T11:35:08.864Z,4.50
2023-02-25T11:37:45.590Z,4.60
2023-02-25T11:40:21.398Z,4.70
2023-02-25T11:43:06.047Z,4.90
2023-02-25T11:45:51.418Z,4.90
2023-02-25T11:48:25.394Z,5.00
2023-02-25T11:51:24.466Z,4.80
2023-02-25T11:53:57.371Z,4.50
2023-02-25T11:56:30.922Z,4.10
2023-02-25T11:59:42.660Z,3.90
2023-02-25T12:02:31.169Z,3.80
2023-02-25T12:05:25.723Z,3.80
2023-02-25T12:08:20.360Z,3.70
2023-02-25T12:11:25.443Z,3.60
2023-02-25T12:14:07.419Z,3.60
2023-02-25T12:17:01.960Z,3.60
2023-02-25T12:20:08.902Z,3.70
2023-02-25T12:23:10.090Z,3.90
2023-02-25T12:26:06.549Z,4.10
2023-02-25T12:29:01.250Z,4.30
2023-02-25T12:31:46.454Z,4.50
2023-02-25T12:34:28.420Z,4.60
2023-02-25T12:37:09.108Z,4.90
2023-02-25T12:39:48.163Z,5.00
2023-02-25T12:42:26.857Z,5.10
2023-02-25T12:45:29.367Z,5.20
2023-02-25T12:48:00.117Z,5.10
2023-02-25T12:50:38.913Z,4.80
2023-02-25T12:53:56.494Z,4.50
2023-02-25T12:56:53.338Z,4.20
2023-02-25T12:59:28.763Z,4.00
2023-02-25T13:02:19.937Z,4.00
2023-02-25T13:05:22.708Z,3.90
2023-02-25T13:08:07.585Z,3.80
2023-02-25T13:10:40.055Z,3.90
2023-02-25T13:13:30.133Z,3.90
2023-02-25T13:16:07.915Z,4.00
2023-02-25T13:18:52.242Z,3.90
2023-02-25T13:21:51.569Z,3.70
2023-02-25T13:24:39.213Z,3.30
2023-02-25T13:27:22.976Z,3.10
2023-02-25T13:30:11.950Z,3.00
2023-02-25T13:32:46.250Z,3.00
2023-02-25T13:35:15.780Z,3.10
2023-02-25T13:38:14.492Z,3.10
2023-02-25T13:41:04.507Z,3.00
2023-02-25T13:43:49.338Z,3.10
2023-02-25T13:46:25.131Z,3.10
2023-02-25T13:49:22.616Z,3.00
2023-02-25T13:52:25.393Z,3.10
2023-02-25T13:55:11.657Z,3.10
2023-02-25T13:58:05.818Z,3.10
2023-02-25T14:00:38.531Z,3.10
2023-02-25T14:03:22.919Z,3.20
2023-02-25T14:06:01.488Z,3.30
2023-02-25T14:08:54.721Z,3.30
2023-02-25T14:11:24.634Z,3.10
2023-02-25T14:14:10.357Z,2.90
2023-02-25T14:17:10.540Z,2.70
2023-02-25T14:20:14.687Z,2.70
2023-02-25T14:22:51.581Z,2.60
2023-02-25T14:25:29.636Z,2.70
2023-02-25T14:28:22.459Z,2.70
2023-02-25T14:31:10.325Z,2.80
2023-02-25T14:34:11.818Z,2.90
2023-02-25T14:37:21.664Z,3.00
2023-02-25T14:40:12.935Z,3.00
2023-02-25T14:43:03.732Z,3.00
2023-02-25T14:45:34.619Z,3.10
2023-02-25T14:48:23.666Z,3.00
2023-02-25T14:51:07.637Z,3.10
2023-02-25T14:54:18.716Z,3.20
2023-02-25T14:56:54.084Z,3.30
2023-02-25T14:59:32.411Z,3.40
2023-02-25T15:02:28.222Z,3.40
2023-02-25T15:05:09.929Z,3.50
2023-02-25T15:08:20.884Z,3.50
2023-02-25T15:11:13.794Z,3.70
2023-02-25T15:14:05.906Z,3.80
2023-02-25T15:16:53.684Z,3.90
2023-02-25T15:19:52.293Z,3.90
2023-02-25T15:22:22.140Z,4.00
2023-02-25T15:24:49.433Z,4.00
2023-02-25T15:27:37.599Z,4.10
2023-02-25T15:30:06.183Z,4.00
2023-02-25T15:32:57.187Z,3.90
2023-02-25T15:35:35.872Z,3.90
2023-02-25T15:38:19.244Z,3.90
2023-02-25T15:40:51.265Z,3.90
2023-02-25T15:43:17.897Z,4.00
2023-02-25T15:46:07.729Z,4.10
2023-02-25T15:48:36.217Z,4.10
2023-02-25T15:51:06.223Z,4.00
2023-02-25T15:53:39.164Z,4.00
2023-02-25T15:56:11.616Z,4.00
2023-02-25T15:58:52.686Z,3.90
2023-02-25T16:01:37.867Z,3.80
2023-02-25T16:04:34.734Z,3.70
2023-02-25T16:07:07.450Z,3.50
2023-02-25T16:09:39.866Z,3.30
2023-02-25T16:12:07.952Z,3.20
2023-02-25T16:14:36.446Z,3.20
2023-02-25T16:17:15.323Z,3.10
2023-02-25T16:19:42.771Z,3.10
2023-02-25T16:22:23.416Z,3.10
2023-02-25T16:24:53.082Z,3.10
2023-02-25T16:27:25.683Z,3.00
2023-02-25T16:30:21.123Z,3.00
2023-02-25T16:33:09.129Z,3.10
2023-02-25T16:36:08.183Z,3.10
2023-02-25T16:38:46.834Z,3.30
2023-02-25T16:41:15.046Z,3.40
2023-02-25T16:43:44.165Z,3.50
2023-02-25T16:46:15.593Z,3.60
2023-02-25T16:48:55.632Z,3.50
2023-02-25T16:51:33.830Z,3.50
2023-02-25T16:54:07.400Z,3.50
2023-02-25T16:56:35.137Z,3.40
2023-02-25T16:59:17.135Z,3.30
2023-02-25T17:01:55.246Z,3.30
2023-02-25T17:04:27.204Z,3.10
2023-02-25T17:07:12.521Z,3.10
2023-02-25T17:09:50.451Z,3.10
2023-02-25T17:12:40.760Z,3.00
2023-02-25T17:15:24.191Z,3.00
2023-02-25T17:18:19.597Z,3.00
2023-02-25T17:20:47.090Z,3.00
2023-02-25T17:23:16.416Z,2.90
2023-02-25T17:25:51.593Z,2.90
2023-02-25T17:28:27.538Z,2.80
2023-02-25T17:31:18.113Z,2.80
2023-02-25T17:33:56.197Z,2.80
2023-02-25T17:36:28.625Z,2.80
2023-02-25T17:39:05.328Z,2.80
2023-02-25T17:41:33.442Z,2.70
2023-02-25T17:44:00.233Z,2.70
2023-02-25T17:46:39.354Z,2.80
2023-02-25T17:49:21.415Z,2.70
2023-02-25T17:52:16.680Z,2.70
2023-02-25T17:54:47.836Z,2.80
2023-02-25T17:57:22.798Z,2.80
2023-02-25T17:59:55.816Z,2.80
2023-02-25T18:02:40.942Z,2.80
2023-02-25T18:05:13.501Z,2.80
2023-02-25T18:07:43.923Z,2.80
2023-02-25T18:10:32.238Z,2.80
2023-02-25T18:13:04.201Z,2.90
2023-02-25T18:15:35.839Z,2.90
2023-02-25T18:18:06.926Z,3.00
2023-02-25T18:20:38.009Z,3.10
2023-02-25T18:23:15.073Z,3.20
2023-02-25T18:26:01.895Z,3.30
2023-02-25T18:28:28.636Z,3.40
2023-02-25T18:30:55.367Z,3.40
2023-02-25T18:33:22.131Z,3.40
2023-02-25T18:35:49.508Z,3.30
2023-02-25T18:38:23.181Z,3.20
2023-02-25T18:40:51.966Z,3.40
2023-02-25T18:43:21.509Z,3.40
2023-02-25T18:45:48.617Z,3.50
2023-02-25T18:48:15.590Z,3.60
2023-02-25T18:50:44.492Z,3.70
2023-02-25T18:53:17.194Z,3.70
2023-02-25T18:55:44.112Z,3.80
2023-02-25T18:58:17.277Z,4.10
2023-02-25T19:00:46.770Z,3.90
2023-02-25T19:03:22.397Z,3.90
2023-02-25T19:05:49.109Z,3.90
2023-02-25T19:08:17.173Z,4.00
2023-02-25T19:10:47.741Z,4.00
2023-02-25T19:13:20.008Z,3.80
2023-02-25T19:15:47.084Z,3.60
2023-02-25T19:18:15.402Z,3.50
2023-02-25T19:20:42.861Z,3.60
2023-02-25T19:23:14.832Z,3.60
2023-02-25T19:25:43.166Z,3.40
2023-02-25T19:28:16.219Z,3.30
2023-02-25T19:30:43.616Z,3.20
2023-02-25T19:33:12.053Z,3.00
2023-02-25T19:35:41.211Z,3.00
2023-02-25T19:38:11.088Z,2.80
2023-02-25T19:40:38.269Z,2.70
2023-02-25T19:43:04.997Z,2.60
2023-02-25T19:45:32.277Z,2.50
2023-02-25T19:48:00.778Z,2.40
2023-02-25T19:50:34.618Z,2.40
2023-02-25T19:53:03.226Z,2.40
2023-02-25T19:55:29.999Z,2.30
2023-02-25T19:57:56.836Z,2.20
2023-02-25T20:00:25.814Z,2.20
2023-02-25T20:02:54.419Z,2.20
2023-02-25T20:05:22.197Z,2.20
2023-02-25T20:07:49.110Z,2.30
2023-02-25T20:10:22.106Z,2.30
2023-02-25T20:12:48.850Z,2.30
2023-02-25T20:15:16.750Z,2.20
2023-02-25T20:17:49.035Z,2.20
2023-02-25T20:20:16.760Z,2.20
2023-02-25T20:22:43.852Z,2.10
2023-02-25T20:25:13.297Z,2.10
2023-02-25T20:27:43.278Z,2.10
2023-02-25T20:30:16.023Z,2.20
2023-02-25T20:32:47.032Z,2.30
2023-02-25T20:35:20.995Z,2.30
2023-02-25T20:38:00.341Z,2.20
2023-02-25T20:40:27.254Z,2.40
2023-02-25T20:42:54.018Z,2.60
2023-02-25T20:45:21.088Z,2.70
2023-02-25T20:47:49.253Z,2.80
2023-02-25T20:50:18.277Z,2.60
2023-02-25T20:52:45.078Z,2.50
2023-02-25T20:55:11.856Z,2.50
2023-02-25T20:57:38.640Z,2.40
2023-02-25T21:00:09.055Z,2.40
2023-02-25T21:02:38.939Z,2.40
2023-02-25T21:05:05.899Z,2.60
2023-02-25T21:07:35.146Z,2.70
2023-02-25T21:10:02.206Z,2.70
2023-02-25T21:12:28.974Z,2.80
2023-02-25T21:14:55.735Z,2.90
2023-02-25T21:17:23.388Z,2.90
2023-02-25T21:19:50.456Z,2.90
2023-02-25T21:22:17.259Z,2.70
2023-02-25T21:24:44.042Z,2.50
2023-02-25T21:27:12.009Z,2.50
2023-02-25T21:29:38.930Z,2.60
2023-02-25T21:32:06.033Z,2.60
2023-02-25T21:34:35.540Z,2.70
2023-02-25T21:37:02.459Z,2.70
2023-02-25T21:39:29.501Z,2.30
2023-02-25T21:41:56.602Z,2.20
2023-02-25T21:44:23.500Z,2.30
2023-02-25T21:46:50.323Z,2.40
2023-02-25T21:49:17.502Z,2.50
2023-02-25T21:51:44.634Z,2.50
2023-02-25T21:54:12.078Z,2.70
2023-02-25T21:56:40.551Z,2.70
2023-02-25T21:59:12.043Z,2.80
2023-02-25T22:01:43.119Z,2.80
2023-02-25T22:04:10.428Z,2.60
2023-02-25T22:06:37.803Z,2.50
2023-02-25T22:09:06.329Z,2.60
2023-02-25T22:11:35.325Z,2.50
2023-02-25T22:14:03.633Z,2.40
2023-02-25T22:16:30.360Z,2.40
2023-02-25T22:18:57.629Z,2.50
2023-02-25T22:21:30.276Z,2.30
2023-02-25T22:24:02.959Z,2.30
2023-02-25T22:26:32.261Z,2.20
2023-02-25T22:29:01.731Z,2.20
2023-02-25T22:31:29.128Z,2.20
2023-02-25T22:33:57.002Z,2.30
2023-02-25T22:36:24.791Z,2.40
2023-02-25T22:38:51.947Z,2.40
2023-02-25T22:41:24.400Z,2.30
2023-02-25T22:43:51.592Z,2.10
2023-02-25T22:46:30.001Z,2.10
2023-02-25T22:48:57.169Z,2.30
2023-02-25T22:51:29.980Z,2.10
2023-02-25T22:53:57.271Z,2.10
2023-02-25T22:56:25.050Z,1.90
2023-02-25T22:58:53.753Z,1.80
2023-02-25T23:01:22.850Z,1.80
2023-02-25T23:03:50.652Z,1.80
2023-02-25T23:06:20.276Z,1.70
2023-02-25T23:08:47.935Z,1.60
2023-02-25T23:11:35.350Z,1.50
2023-02-25T23:14:03.497Z,1.50
2023-02-25T23:16:37.073Z,1.40
2023-02-25T23:19:05.073Z,1.60
2023-02-25T23:21:33.359Z,1.20
2023-02-25T23:24:01.926Z,1.20
2023-02-25T23:26:33.594Z,1.20
2023-02-25T23:29:02.901Z,1.30
2023-02-25T23:31:34.925Z,1.10
2023-02-25T23:34:11.199Z,1.00
2023-02-25T23:36:39.624Z,1.00
2023-02-25T23:39:08.282Z,1.00
2023-02-25T23:41:36.303Z,1.10
2023-02-25T23:44:03.940Z,1.10
2023-02-25T23:46:31.633Z,1.00
2023-02-25T23:49:01.072Z,0.90
2023-02-25T23:51:29.041Z,0.90
2023-02-25T23:53:58.370Z,0.80
2023-02-25T23:56:27.252Z,0.90
2023-02-25T23:58:56.329Z,0.90
